sensor_id;sensor_type;location;lat;lon;timestamp;temperature;humidity
34472;DHT22;20710;49.976;19.836;2022-10-16T00:02:51;12.55;83.26
34472;DHT22;20710;49.976;19.836;2022-10-16T00:08:52;12.57;83.10
34472;DHT22;20710;49.976;19.836;2022-10-16T00:14:54;12.60;82.90
34472;DHT22;20710;49.976;19.836;2022-10-16T00:21:01;12.61;82.68
34472;DHT22;20710;49.976;19.836;2022-10-16T00:27:03;12.65;82.60
34472;DHT22;20710;49.976;19.836;2022-10-16T00:33:04;12.71;82.57
34472;DHT22;20710;49.976;19.836;2022-10-16T00:39:06;12.71;82.63
34472;DHT22;20710;49.976;19.836;2022-10-16T00:45:09;12.72;82.60
34472;DHT22;20710;49.976;19.836;2022-10-16T00:51:10;12.75;82.48
34472;DHT22;20710;49.976;19.836;2022-10-16T00:57:12;12.76;82.55
34472;DHT22;20710;49.976;19.836;2022-10-16T01:03:29;12.75;82.67
34472;DHT22;20710;49.976;19.836;2022-10-16T01:09:50;12.74;82.95
34472;DHT22;20710;49.976;19.836;2022-10-16T01:16:02;12.72;83.12
34472;DHT22;20710;49.976;19.836;2022-10-16T01:21:59;12.72;83.12
34472;DHT22;20710;49.976;19.836;2022-10-16T01:28:04;12.71;83.22
34472;DHT22;20710;49.976;19.836;2022-10-16T01:34:33;12.68;83.27
34472;DHT22;20710;49.976;19.836;2022-10-16T01:40:36;12.65;83.20
34472;DHT22;20710;49.976;19.836;2022-10-16T01:46:42;12.65;83.40
34472;DHT22;20710;49.976;19.836;2022-10-16T01:52:48;12.67;83.35
34472;DHT22;20710;49.976;19.836;2022-10-16T01:59:11;12.61;83.69
34472;DHT22;20710;49.976;19.836;2022-10-16T02:05:40;12.51;84.08
34472;DHT22;20710;49.976;19.836;2022-10-16T02:11:43;12.48;84.31
34472;DHT22;20710;49.976;19.836;2022-10-16T02:17:45;12.40;84.10
34472;DHT22;20710;49.976;19.836;2022-10-16T02:30:24;12.32;84.75
34472;DHT22;20710;49.976;19.836;2022-10-16T02:36:26;12.26;84.61
34472;DHT22;20710;49.976;19.836;2022-10-16T02:42:35;12.23;84.72
34472;DHT22;20710;49.976;19.836;2022-10-16T02:48:37;12.20;84.78
34472;DHT22;20710;49.976;19.836;2022-10-16T02:54:40;12.16;84.74
34472;DHT22;20710;49.976;19.836;2022-10-16T03:00:41;12.16;84.68
34472;DHT22;20710;49.976;19.836;2022-10-16T03:06:43;12.13;84.84
34472;DHT22;20710;49.976;19.836;2022-10-16T03:12:45;12.07;84.87
34472;DHT22;20710;49.976;19.836;2022-10-16T03:18:49;12.07;85.03
34472;DHT22;20710;49.976;19.836;2022-10-16T03:24:51;12.00;85.07
34472;DHT22;20710;49.976;19.836;2022-10-16T03:30:52;11.92;84.98
34472;DHT22;20710;49.976;19.836;2022-10-16T03:36:54;11.84;84.84
34472;DHT22;20710;49.976;19.836;2022-10-16T03:42:55;11.72;84.86
34472;DHT22;20710;49.976;19.836;2022-10-16T03:48:58;11.57;84.83
34472;DHT22;20710;49.976;19.836;2022-10-16T03:54:59;11.42;84.90
34472;DHT22;20710;49.976;19.836;2022-10-16T04:01:02;11.30;85.20
34472;DHT22;20710;49.976;19.836;2022-10-16T04:07:03;11.19;85.83
34472;DHT22;20710;49.976;19.836;2022-10-16T04:13:04;11.13;85.76
34472;DHT22;20710;49.976;19.836;2022-10-16T04:19:06;11.09;85.95
34472;DHT22;20710;49.976;19.836;2022-10-16T04:25:08;11.06;85.89
34472;DHT22;20710;49.976;19.836;2022-10-16T04:31:09;11.00;86.37
34472;DHT22;20710;49.976;19.836;2022-10-16T04:37:11;10.89;86.38
34472;DHT22;20710;49.976;19.836;2022-10-16T04:43:12;10.85;86.41
34472;DHT22;20710;49.976;19.836;2022-10-16T04:49:14;10.82;86.22
34472;DHT22;20710;49.976;19.836;2022-10-16T04:55:15;10.81;86.14
34472;DHT22;20710;49.976;19.836;2022-10-16T05:01:16;10.70;86.27
34472;DHT22;20710;49.976;19.836;2022-10-16T05:07:17;10.60;86.20
34472;DHT22;20710;49.976;19.836;2022-10-16T05:13:19;10.47;86.25
34472;DHT22;20710;49.976;19.836;2022-10-16T05:19:20;10.36;86.31
34472;DHT22;20710;49.976;19.836;2022-10-16T05:25:22;10.32;86.07
34472;DHT22;20710;49.976;19.836;2022-10-16T05:31:23;10.40;86.02
34472;DHT22;20710;49.976;19.836;2022-10-16T05:37:24;10.46;86.49
34472;DHT22;20710;49.976;19.836;2022-10-16T05:43:28;10.44;86.78
34472;DHT22;20710;49.976;19.836;2022-10-16T05:49:29;10.47;86.91
34472;DHT22;20710;49.976;19.836;2022-10-16T05:55:31;10.53;86.80
34472;DHT22;20710;49.976;19.836;2022-10-16T06:01:33;10.64;86.80
34472;DHT22;20710;49.976;19.836;2022-10-16T06:07:36;10.71;87.13
34472;DHT22;20710;49.976;19.836;2022-10-16T06:13:37;10.75;86.93
34472;DHT22;20710;49.976;19.836;2022-10-16T06:19:40;10.82;86.79
34472;DHT22;20710;49.976;19.836;2022-10-16T06:25:41;10.98;86.92
34472;DHT22;20710;49.976;19.836;2022-10-16T06:31:43;11.15;87.03
34472;DHT22;20710;49.976;19.836;2022-10-16T06:37:44;11.33;87.19
34472;DHT22;20710;49.976;19.836;2022-10-16T06:43:46;11.49;87.07
34472;DHT22;20710;49.976;19.836;2022-10-16T06:49:48;11.64;87.06
34472;DHT22;20710;49.976;19.836;2022-10-16T06:55:49;11.75;87.22
34472;DHT22;20710;49.976;19.836;2022-10-16T07:01:53;11.85;87.05
34472;DHT22;20710;49.976;19.836;2022-10-16T07:07:54;12.03;87.19
34472;DHT22;20710;49.976;19.836;2022-10-16T07:13:56;12.16;86.88
34472;DHT22;20710;49.976;19.836;2022-10-16T07:19:57;12.29;86.83
34472;DHT22;20710;49.976;19.836;2022-10-16T07:25:59;12.37;86.60
34472;DHT22;20710;49.976;19.836;2022-10-16T07:32:01;12.52;86.53
34472;DHT22;20710;49.976;19.836;2022-10-16T07:38:03;12.83;86.13
34472;DHT22;20710;49.976;19.836;2022-10-16T07:44:04;13.14;85.56
34472;DHT22;20710;49.976;19.836;2022-10-16T07:50:07;13.41;85.08
34472;DHT22;20710;49.976;19.836;2022-10-16T07:56:10;13.68;84.66
34472;DHT22;20710;49.976;19.836;2022-10-16T08:02:12;14.04;84.34
34472;DHT22;20710;49.976;19.836;2022-10-16T08:08:15;14.72;83.97
34472;DHT22;20710;49.976;19.836;2022-10-16T08:14:18;15.41;82.98
34472;DHT22;20710;49.976;19.836;2022-10-16T08:20:19;15.93;81.99
34472;DHT22;20710;49.976;19.836;2022-10-16T08:26:21;16.31;80.56
34472;DHT22;20710;49.976;19.836;2022-10-16T08:32:22;16.69;79.24
34472;DHT22;20710;49.976;19.836;2022-10-16T08:38:31;17.27;78.78
34472;DHT22;20710;49.976;19.836;2022-10-16T08:45:01;17.88;77.97
34472;DHT22;20710;49.976;19.836;2022-10-16T08:51:03;19.19;74.98
34472;DHT22;20710;49.976;19.836;2022-10-16T08:57:22;19.45;73.73
34472;DHT22;20710;49.976;19.836;2022-10-16T09:23:40;20.11;69.90
34472;DHT22;20710;49.976;19.836;2022-10-16T09:29:42;20.15;69.48
34472;DHT22;20710;49.976;19.836;2022-10-16T09:35:54;20.22;69.35
34472;DHT22;20710;49.976;19.836;2022-10-16T09:41:57;20.57;69.36
34472;DHT22;20710;49.976;19.836;2022-10-16T09:48:08;21.09;68.64
34472;DHT22;20710;49.976;19.836;2022-10-16T09:54:18;21.57;67.82
34472;DHT22;20710;49.976;19.836;2022-10-16T10:00:22;21.74;66.36
34472;DHT22;20710;49.976;19.836;2022-10-16T10:06:30;21.71;66.01
34472;DHT22;20710;49.976;19.836;2022-10-16T10:13:24;21.94;66.45
34472;DHT22;20710;49.976;19.836;2022-10-16T10:19:26;22.56;62.60
34472;DHT22;20710;49.976;19.836;2022-10-16T10:25:49;22.75;63.79
34472;DHT22;20710;49.976;19.836;2022-10-16T10:38:25;22.97;60.48
34472;DHT22;20710;49.976;19.836;2022-10-16T10:45:03;22.98;58.30
34472;DHT22;20710;49.976;19.836;2022-10-16T10:51:43;22.85;58.17
34472;DHT22;20710;49.976;19.836;2022-10-16T10:58:03;22.64;59.00
34472;DHT22;20710;49.976;19.836;2022-10-16T11:11:14;22.16;59.30
34472;DHT22;20710;49.976;19.836;2022-10-16T11:17:23;22.01;60.20
34472;DHT22;20710;49.976;19.836;2022-10-16T11:23:53;21.84;59.45
34472;DHT22;20710;49.976;19.836;2022-10-16T11:29:59;21.78;59.72
34472;DHT22;20710;49.976;19.836;2022-10-16T11:36:15;21.74;59.11
34472;DHT22;20710;49.976;19.836;2022-10-16T11:42:27;21.63;60.31
34472;DHT22;20710;49.976;19.836;2022-10-16T11:48:49;21.52;60.76
34472;DHT22;20710;49.976;19.836;2022-10-16T11:54:59;21.35;61.14
34472;DHT22;20710;49.976;19.836;2022-10-16T12:01:31;21.13;61.39
34472;DHT22;20710;49.976;19.836;2022-10-16T12:07:40;20.95;61.54
34472;DHT22;20710;49.976;19.836;2022-10-16T12:13:44;20.78;61.92
34472;DHT22;20710;49.976;19.836;2022-10-16T12:26:33;20.58;62.50
34472;DHT22;20710;49.976;19.836;2022-10-16T12:33:02;20.64;62.16
34472;DHT22;20710;49.976;19.836;2022-10-16T12:39:00;20.80;62.82
34472;DHT22;20710;49.976;19.836;2022-10-16T13:17:56;20.68;62.92
34472;DHT22;20710;49.976;19.836;2022-10-16T13:30:38;20.60;63.17
34472;DHT22;20710;49.976;19.836;2022-10-16T13:36:48;20.54;62.92
34472;DHT22;20710;49.976;19.836;2022-10-16T13:42:53;20.51;62.47
34472;DHT22;20710;49.976;19.836;2022-10-16T13:49:15;20.51;62.55
34472;DHT22;20710;49.976;19.836;2022-10-16T13:55:16;20.44;62.82
34472;DHT22;20710;49.976;19.836;2022-10-16T14:01:28;20.33;62.83
34472;DHT22;20710;49.976;19.836;2022-10-16T14:14:12;20.08;63.46
34472;DHT22;20710;49.976;19.836;2022-10-16T14:20:21;19.94;63.51
34472;DHT22;20710;49.976;19.836;2022-10-16T14:26:27;19.89;63.64
34472;DHT22;20710;49.976;19.836;2022-10-16T14:32:28;19.84;63.62
34472;DHT22;20710;49.976;19.836;2022-10-16T14:38:32;19.84;63.85
34472;DHT22;20710;49.976;19.836;2022-10-16T14:44:41;19.84;63.93
34472;DHT22;20710;49.976;19.836;2022-10-16T14:50:46;19.84;63.96
34472;DHT22;20710;49.976;19.836;2022-10-16T14:56:55;19.84;63.53
34472;DHT22;20710;49.976;19.836;2022-10-16T15:02:57;19.71;63.72
34472;DHT22;20710;49.976;19.836;2022-10-16T15:08:59;19.56;64.04
34472;DHT22;20710;49.976;19.836;2022-10-16T15:21:31;19.18;65.06
34472;DHT22;20710;49.976;19.836;2022-10-16T15:27:33;18.99;65.46
34472;DHT22;20710;49.976;19.836;2022-10-16T15:33:37;18.83;66.04
34472;DHT22;20710;49.976;19.836;2022-10-16T15:39:39;18.60;66.50
34472;DHT22;20710;49.976;19.836;2022-10-16T15:45:40;18.36;66.92
34472;DHT22;20710;49.976;19.836;2022-10-16T15:51:42;18.19;67.36
34472;DHT22;20710;49.976;19.836;2022-10-16T15:57:44;17.93;68.04
34472;DHT22;20710;49.976;19.836;2022-10-16T16:03:45;17.69;68.74
34472;DHT22;20710;49.976;19.836;2022-10-16T16:09:47;17.49;69.31
34472;DHT22;20710;49.976;19.836;2022-10-16T16:15:48;17.27;69.76
34472;DHT22;20710;49.976;19.836;2022-10-16T16:21:52;17.06;70.36
34472;DHT22;20710;49.976;19.836;2022-10-16T16:27:54;16.80;70.83
34472;DHT22;20710;49.976;19.836;2022-10-16T16:33:57;16.58;71.47
34472;DHT22;20710;49.976;19.836;2022-10-16T16:39:58;16.32;71.85
34472;DHT22;20710;49.976;19.836;2022-10-16T16:46:01;16.14;72.34
34472;DHT22;20710;49.976;19.836;2022-10-16T16:52:03;15.89;72.67
34472;DHT22;20710;49.976;19.836;2022-10-16T16:58:05;15.70;73.37
34472;DHT22;20710;49.976;19.836;2022-10-16T17:04:07;15.49;73.72
34472;DHT22;20710;49.976;19.836;2022-10-16T17:10:09;15.33;74.03
34472;DHT22;20710;49.976;19.836;2022-10-16T17:16:10;15.21;74.66
34472;DHT22;20710;49.976;19.836;2022-10-16T17:22:12;15.07;75.22
34472;DHT22;20710;49.976;19.836;2022-10-16T17:28:14;14.86;75.49
34472;DHT22;20710;49.976;19.836;2022-10-16T17:34:15;14.75;75.81
34472;DHT22;20710;49.976;19.836;2022-10-16T17:40:17;14.69;76.05
34472;DHT22;20710;49.976;19.836;2022-10-16T17:46:21;14.49;76.61
34472;DHT22;20710;49.976;19.836;2022-10-16T17:52:22;14.35;76.64
34472;DHT22;20710;49.976;19.836;2022-10-16T17:58:24;14.28;77.47
34472;DHT22;20710;49.976;19.836;2022-10-16T18:04:25;14.10;78.00
34472;DHT22;20710;49.976;19.836;2022-10-16T18:10:27;13.90;77.84
34472;DHT22;20710;49.976;19.836;2022-10-16T18:16:29;13.84;77.72
34472;DHT22;20710;49.976;19.836;2022-10-16T18:22:35;13.86;77.96
34472;DHT22;20710;49.976;19.836;2022-10-16T18:28:36;13.76;78.75
34472;DHT22;20710;49.976;19.836;2022-10-16T18:34:38;13.55;78.95
34472;DHT22;20710;49.976;19.836;2022-10-16T18:40:39;13.35;79.22
34472;DHT22;20710;49.976;19.836;2022-10-16T18:46:41;13.19;79.38
34472;DHT22;20710;49.976;19.836;2022-10-16T18:52:48;13.09;79.75
34472;DHT22;20710;49.976;19.836;2022-10-16T18:58:51;12.98;79.56
34472;DHT22;20710;49.976;19.836;2022-10-16T19:04:53;12.88;80.31
34472;DHT22;20710;49.976;19.836;2022-10-16T19:10:55;12.79;80.77
34472;DHT22;20710;49.976;19.836;2022-10-16T19:16:56;12.68;82.05
34472;DHT22;20710;49.976;19.836;2022-10-16T19:22:57;12.43;82.06
34472;DHT22;20710;49.976;19.836;2022-10-16T19:29:02;12.22;81.65
34472;DHT22;20710;49.976;19.836;2022-10-16T19:35:04;12.20;82.18
34472;DHT22;20710;49.976;19.836;2022-10-16T19:41:11;12.07;82.28
34472;DHT22;20710;49.976;19.836;2022-10-16T19:47:12;12.02;83.05
34472;DHT22;20710;49.976;19.836;2022-10-16T19:53:14;11.79;83.02
34472;DHT22;20710;49.976;19.836;2022-10-16T19:59:15;11.72;83.20
34472;DHT22;20710;49.976;19.836;2022-10-16T20:05:18;11.70;82.66
34472;DHT22;20710;49.976;19.836;2022-10-16T20:11:24;11.68;83.39
34472;DHT22;20710;49.976;19.836;2022-10-16T20:17:25;11.64;84.13
34472;DHT22;20710;49.976;19.836;2022-10-16T20:23:27;11.53;83.93
34472;DHT22;20710;49.976;19.836;2022-10-16T20:29:28;11.46;84.12
34472;DHT22;20710;49.976;19.836;2022-10-16T20:35:36;11.43;84.71
34472;DHT22;20710;49.976;19.836;2022-10-16T20:41:37;11.39;85.01
34472;DHT22;20710;49.976;19.836;2022-10-16T20:47:39;11.36;85.11
34472;DHT22;20710;49.976;19.836;2022-10-16T20:53:41;11.33;85.31
34472;DHT22;20710;49.976;19.836;2022-10-16T20:59:43;11.17;85.25
34472;DHT22;20710;49.976;19.836;2022-10-16T21:05:45;11.00;85.00
34472;DHT22;20710;49.976;19.836;2022-10-16T21:11:46;10.99;85.62
34472;DHT22;20710;49.976;19.836;2022-10-16T21:17:48;10.88;85.44
34472;DHT22;20710;49.976;19.836;2022-10-16T21:23:50;10.87;85.43
34472;DHT22;20710;49.976;19.836;2022-10-16T21:29:52;10.85;84.76
34472;DHT22;20710;49.976;19.836;2022-10-16T21:35:54;10.88;86.05
34472;DHT22;20710;49.976;19.836;2022-10-16T21:41:55;10.85;86.09
34472;DHT22;20710;49.976;19.836;2022-10-16T21:47:56;10.84;84.68
34472;DHT22;20710;49.976;19.836;2022-10-16T21:53:59;10.84;85.57
34472;DHT22;20710;49.976;19.836;2022-10-16T22:00:01;10.65;85.50
34472;DHT22;20710;49.976;19.836;2022-10-16T22:06:04;10.63;84.72
34472;DHT22;20710;49.976;19.836;2022-10-16T22:12:06;10.60;85.55
34472;DHT22;20710;49.976;19.836;2022-10-16T22:18:08;10.51;85.98
34472;DHT22;20710;49.976;19.836;2022-10-16T22:24:09;10.41;85.69
34472;DHT22;20710;49.976;19.836;2022-10-16T22:30:11;10.40;85.06
34472;DHT22;20710;49.976;19.836;2022-10-16T22:36:13;10.37;85.23
34472;DHT22;20710;49.976;19.836;2022-10-16T22:42:15;10.41;85.80
34472;DHT22;20710;49.976;19.836;2022-10-16T22:48:16;10.35;85.90
34472;DHT22;20710;49.976;19.836;2022-10-16T22:54:18;10.26;85.84
34472;DHT22;20710;49.976;19.836;2022-10-16T23:00:19;10.22;85.97
34472;DHT22;20710;49.976;19.836;2022-10-16T23:06:21;10.18;86.20
34472;DHT22;20710;49.976;19.836;2022-10-16T23:12:22;10.13;86.73
34472;DHT22;20710;49.976;19.836;2022-10-16T23:18:25;10.05;86.63
34472;DHT22;20710;49.976;19.836;2022-10-16T23:24:31;9.98;86.38
34472;DHT22;20710;49.976;19.836;2022-10-16T23:30:32;10.05;86.55
34472;DHT22;20710;49.976;19.836;2022-10-16T23:36:34;9.90;86.67
34472;DHT22;20710;49.976;19.836;2022-10-16T23:42:35;9.80;86.74
34472;DHT22;20710;49.976;19.836;2022-10-16T23:48:37;9.71;86.78
34472;DHT22;20710;49.976;19.836;2022-10-16T23:54:38;9.63;87.26
